sensor_id;sensor_type;location;lat;lon;timestamp;P1;durP1;ratioP1;P2;durP2;ratioP2
76380;SDS011;65202;52.520;10.528;2023-07-20T00:01:00;2.00;;;1.80;;
76380;SDS011;65202;52.520;10.528;2023-07-20T00:03:27;2.55;;;1.70;;
76380;SDS011;65202;52.520;10.528;2023-07-20T00:05:54;4.15;;;1.90;;
76380;SDS011;65202;52.520;10.528;2023-07-20T00:08:21;3.22;;;1.92;;
76380;SDS011;65202;52.520;10.528;2023-07-20T00:10:49;3.08;;;1.80;;
76380;SDS011;65202;52.520;10.528;2023-07-20T00:13:16;2.38;;;1.90;;
76380;SDS011;65202;52.520;10.528;2023-07-20T00:15:45;2.13;;;1.77;;
76380;SDS011;65202;52.520;10.528;2023-07-20T00:18:12;5.07;;;1.88;;
76380;SDS011;65202;52.520;10.528;2023-07-20T00:20:40;2.15;;;1.70;;
76380;SDS011;65202;52.520;10.528;2023-07-20T00:23:07;3.80;;;1.92;;
76380;SDS011;65202;52.520;10.528;2023-07-20T00:25:35;3.63;;;1.70;;
76380;SDS011;65202;52.520;10.528;2023-07-20T00:28:02;4.38;;;1.80;;
76380;SDS011;65202;52.520;10.528;2023-07-20T00:30:29;4.95;;;1.90;;
76380;SDS011;65202;52.520;10.528;2023-07-20T00:32:57;5.00;;;1.95;;
76380;SDS011;65202;52.520;10.528;2023-07-20T00:35:24;4.32;;;1.90;;
76380;SDS011;65202;52.520;10.528;2023-07-20T00:37:51;3.15;;;1.70;;
76380;SDS011;65202;52.520;10.528;2023-07-20T00:40:19;4.35;;;1.83;;
76380;SDS011;65202;52.520;10.528;2023-07-20T00:42:46;1.95;;;1.60;;
76380;SDS011;65202;52.520;10.528;2023-07-20T00:45:13;2.63;;;2.00;;
76380;SDS011;65202;52.520;10.528;2023-07-20T00:47:40;2.42;;;1.75;;
76380;SDS011;65202;52.520;10.528;2023-07-20T00:50:08;3.17;;;1.90;;
76380;SDS011;65202;52.520;10.528;2023-07-20T00:52:37;4.60;;;2.10;;
76380;SDS011;65202;52.520;10.528;2023-07-20T00:55:08;7.38;;;2.20;;
76380;SDS011;65202;52.520;10.528;2023-07-20T00:57:37;3.90;;;2.10;;
76380;SDS011;65202;52.520;10.528;2023-07-20T01:00:04;3.90;;;2.10;;
76380;SDS011;65202;52.520;10.528;2023-07-20T01:02:33;4.18;;;2.00;;
76380;SDS011;65202;52.520;10.528;2023-07-20T01:05:01;2.25;;;1.98;;
76380;SDS011;65202;52.520;10.528;2023-07-20T01:07:32;3.65;;;1.95;;
76380;SDS011;65202;52.520;10.528;2023-07-20T01:10:13;2.97;;;1.90;;
76380;SDS011;65202;52.520;10.528;2023-07-20T01:13:11;3.63;;;2.15;;
76380;SDS011;65202;52.520;10.528;2023-07-20T01:15:41;2.33;;;2.10;;
76380;SDS011;65202;52.520;10.528;2023-07-20T01:18:08;2.38;;;2.08;;
76380;SDS011;65202;52.520;10.528;2023-07-20T01:20:35;2.00;;;1.85;;
76380;SDS011;65202;52.520;10.528;2023-07-20T01:26:11;4.93;;;2.25;;
76380;SDS011;65202;52.520;10.528;2023-07-20T01:31:52;2.67;;;2.03;;
76380;SDS011;65202;52.520;10.528;2023-07-20T01:34:22;2.50;;;1.90;;
76380;SDS011;65202;52.520;10.528;2023-07-20T01:36:52;3.70;;;2.20;;
76380;SDS011;65202;52.520;10.528;2023-07-20T01:39:22;3.95;;;2.10;;
76380;SDS011;65202;52.520;10.528;2023-07-20T01:41:50;5.85;;;2.50;;
76380;SDS011;65202;52.520;10.528;2023-07-20T01:44:18;2.70;;;2.17;;
76380;SDS011;65202;52.520;10.528;2023-07-20T01:46:45;4.50;;;2.53;;
76380;SDS011;65202;52.520;10.528;2023-07-20T01:49:12;2.20;;;2.00;;
76380;SDS011;65202;52.520;10.528;2023-07-20T01:51:40;4.13;;;2.30;;
76380;SDS011;65202;52.520;10.528;2023-07-20T01:54:07;4.80;;;2.60;;
76380;SDS011;65202;52.520;10.528;2023-07-20T01:56:34;4.47;;;2.30;;
76380;SDS011;65202;52.520;10.528;2023-07-20T01:59:01;5.45;;;2.33;;
76380;SDS011;65202;52.520;10.528;2023-07-20T02:01:29;2.63;;;2.00;;
76380;SDS011;65202;52.520;10.528;2023-07-20T02:03:56;5.15;;;2.30;;
76380;SDS011;65202;52.520;10.528;2023-07-20T02:06:23;3.83;;;2.45;;
76380;SDS011;65202;52.520;10.528;2023-07-20T02:08:51;3.15;;;2.40;;
76380;SDS011;65202;52.520;10.528;2023-07-20T02:11:18;5.22;;;2.50;;
76380;SDS011;65202;52.520;10.528;2023-07-20T02:13:46;3.75;;;2.30;;
76380;SDS011;65202;52.520;10.528;2023-07-20T02:16:13;4.47;;;2.42;;
76380;SDS011;65202;52.520;10.528;2023-07-20T02:18:40;4.93;;;2.40;;
76380;SDS011;65202;52.520;10.528;2023-07-20T02:21:07;2.38;;;2.10;;
76380;SDS011;65202;52.520;10.528;2023-07-20T02:23:34;4.93;;;2.38;;
76380;SDS011;65202;52.520;10.528;2023-07-20T02:26:02;4.88;;;2.08;;
76380;SDS011;65202;52.520;10.528;2023-07-20T02:28:29;2.55;;;2.03;;
76380;SDS011;65202;52.520;10.528;2023-07-20T02:30:56;4.88;;;2.05;;
76380;SDS011;65202;52.520;10.528;2023-07-20T02:33:23;3.03;;;1.83;;
76380;SDS011;65202;52.520;10.528;2023-07-20T02:35:51;3.65;;;2.20;;
76380;SDS011;65202;52.520;10.528;2023-07-20T02:38:18;3.78;;;2.10;;
76380;SDS011;65202;52.520;10.528;2023-07-20T02:40:45;4.28;;;2.00;;
76380;SDS011;65202;52.520;10.528;2023-07-20T02:43:12;2.85;;;2.10;;
76380;SDS011;65202;52.520;10.528;2023-07-20T02:45:40;3.63;;;2.10;;
76380;SDS011;65202;52.520;10.528;2023-07-20T02:48:08;4.00;;;2.10;;
76380;SDS011;65202;52.520;10.528;2023-07-20T02:50:35;9.20;;;2.10;;
76380;SDS011;65202;52.520;10.528;2023-07-20T02:53:03;5.38;;;1.90;;
76380;SDS011;65202;52.520;10.528;2023-07-20T02:55:30;4.22;;;2.20;;
76380;SDS011;65202;52.520;10.528;2023-07-20T02:57:58;2.30;;;2.10;;
76380;SDS011;65202;52.520;10.528;2023-07-20T03:00:25;2.40;;;2.00;;
76380;SDS011;65202;52.520;10.528;2023-07-20T03:02:53;2.90;;;2.10;;
76380;SDS011;65202;52.520;10.528;2023-07-20T03:05:22;3.80;;;2.22;;
76380;SDS011;65202;52.520;10.528;2023-07-20T03:07:55;2.60;;;2.38;;
76380;SDS011;65202;52.520;10.528;2023-07-20T03:10:22;5.53;;;2.45;;
76380;SDS011;65202;52.520;10.528;2023-07-20T03:12:50;3.25;;;2.10;;
76380;SDS011;65202;52.520;10.528;2023-07-20T03:15:17;4.50;;;2.13;;
76380;SDS011;65202;52.520;10.528;2023-07-20T03:17:44;3.65;;;2.22;;
76380;SDS011;65202;52.520;10.528;2023-07-20T03:20:12;3.40;;;2.10;;
76380;SDS011;65202;52.520;10.528;2023-07-20T03:22:39;2.50;;;2.30;;
76380;SDS011;65202;52.520;10.528;2023-07-20T03:25:07;4.78;;;2.50;;
76380;SDS011;65202;52.520;10.528;2023-07-20T03:27:35;4.25;;;2.15;;
76380;SDS011;65202;52.520;10.528;2023-07-20T03:30:02;3.13;;;2.33;;
76380;SDS011;65202;52.520;10.528;2023-07-20T03:32:29;4.30;;;2.50;;
76380;SDS011;65202;52.520;10.528;2023-07-20T03:34:57;2.50;;;2.08;;
76380;SDS011;65202;52.520;10.528;2023-07-20T03:37:24;2.15;;;1.95;;
76380;SDS011;65202;52.520;10.528;2023-07-20T03:39:51;3.90;;;2.00;;
76380;SDS011;65202;52.520;10.528;2023-07-20T03:42:18;3.72;;;2.00;;
76380;SDS011;65202;52.520;10.528;2023-07-20T03:44:46;2.30;;;1.98;;
76380;SDS011;65202;52.520;10.528;2023-07-20T03:47:13;1.77;;;1.67;;
76380;SDS011;65202;52.520;10.528;2023-07-20T03:49:40;3.00;;;1.80;;
76380;SDS011;65202;52.520;10.528;2023-07-20T03:52:08;3.15;;;1.80;;
76380;SDS011;65202;52.520;10.528;2023-07-20T03:54:35;3.40;;;2.08;;
76380;SDS011;65202;52.520;10.528;2023-07-20T03:57:03;2.80;;;2.25;;
76380;SDS011;65202;52.520;10.528;2023-07-20T03:59:30;2.53;;;1.85;;
76380;SDS011;65202;52.520;10.528;2023-07-20T04:01:58;4.30;;;2.08;;
76380;SDS011;65202;52.520;10.528;2023-07-20T04:04:25;3.20;;;1.90;;
76380;SDS011;65202;52.520;10.528;2023-07-20T04:06:52;2.55;;;1.90;;
76380;SDS011;65202;52.520;10.528;2023-07-20T04:09:19;4.93;;;2.10;;
76380;SDS011;65202;52.520;10.528;2023-07-20T04:11:47;4.00;;;2.00;;
76380;SDS011;65202;52.520;10.528;2023-07-20T04:14:14;2.75;;;1.90;;
76380;SDS011;65202;52.520;10.528;2023-07-20T04:16:41;3.47;;;2.08;;
76380;SDS011;65202;52.520;10.528;2023-07-20T04:19:08;2.28;;;1.80;;
76380;SDS011;65202;52.520;10.528;2023-07-20T04:21:39;3.63;;;2.17;;
76380;SDS011;65202;52.520;10.528;2023-07-20T04:24:10;2.35;;;1.85;;
76380;SDS011;65202;52.520;10.528;2023-07-20T04:26:37;3.70;;;2.00;;
76380;SDS011;65202;52.520;10.528;2023-07-20T04:29:04;2.15;;;1.98;;
76380;SDS011;65202;52.520;10.528;2023-07-20T04:31:31;3.83;;;2.10;;
76380;SDS011;65202;52.520;10.528;2023-07-20T04:34:00;3.53;;;2.38;;
76380;SDS011;65202;52.520;10.528;2023-07-20T04:36:28;4.25;;;2.70;;
76380;SDS011;65202;52.520;10.528;2023-07-20T04:38:55;4.30;;;2.38;;
76380;SDS011;65202;52.520;10.528;2023-07-20T04:41:22;2.80;;;2.10;;
76380;SDS011;65202;52.520;10.528;2023-07-20T04:43:49;3.13;;;2.10;;
76380;SDS011;65202;52.520;10.528;2023-07-20T04:46:17;2.88;;;2.20;;
76380;SDS011;65202;52.520;10.528;2023-07-20T04:48:46;3.13;;;1.83;;
76380;SDS011;65202;52.520;10.528;2023-07-20T04:51:14;2.20;;;2.00;;
76380;SDS011;65202;52.520;10.528;2023-07-20T04:53:44;3.95;;;2.20;;
76380;SDS011;65202;52.520;10.528;2023-07-20T04:56:11;3.22;;;1.95;;
76380;SDS011;65202;52.520;10.528;2023-07-20T04:58:38;5.78;;;2.90;;
76380;SDS011;65202;52.520;10.528;2023-07-20T05:01:05;2.75;;;1.90;;
76380;SDS011;65202;52.520;10.528;2023-07-20T05:03:33;3.13;;;1.80;;
76380;SDS011;65202;52.520;10.528;2023-07-20T05:06:01;4.75;;;2.00;;
76380;SDS011;65202;52.520;10.528;2023-07-20T05:08:28;2.92;;;2.28;;
76380;SDS011;65202;52.520;10.528;2023-07-20T05:10:55;6.20;;;2.22;;
76380;SDS011;65202;52.520;10.528;2023-07-20T05:13:23;4.20;;;1.90;;
76380;SDS011;65202;52.520;10.528;2023-07-20T05:15:53;4.63;;;2.10;;
76380;SDS011;65202;52.520;10.528;2023-07-20T05:18:20;7.68;;;2.30;;
76380;SDS011;65202;52.520;10.528;2023-07-20T05:20:47;4.40;;;2.10;;
76380;SDS011;65202;52.520;10.528;2023-07-20T05:23:16;3.78;;;2.13;;
76380;SDS011;65202;52.520;10.528;2023-07-20T05:25:46;3.08;;;2.40;;
76380;SDS011;65202;52.520;10.528;2023-07-20T05:28:13;5.80;;;2.65;;
76380;SDS011;65202;52.520;10.528;2023-07-20T05:30:41;3.72;;;2.42;;
76380;SDS011;65202;52.520;10.528;2023-07-20T05:33:08;3.58;;;2.47;;
76380;SDS011;65202;52.520;10.528;2023-07-20T05:35:36;5.55;;;2.65;;
76380;SDS011;65202;52.520;10.528;2023-07-20T05:38:04;5.97;;;2.80;;
76380;SDS011;65202;52.520;10.528;2023-07-20T05:40:32;10.80;;;3.20;;
76380;SDS011;65202;52.520;10.528;2023-07-20T05:42:59;4.65;;;2.60;;
76380;SDS011;65202;52.520;10.528;2023-07-20T05:45:27;2.90;;;2.67;;
76380;SDS011;65202;52.520;10.528;2023-07-20T05:47:54;6.28;;;2.80;;
76380;SDS011;65202;52.520;10.528;2023-07-20T05:50:22;6.30;;;2.92;;
76380;SDS011;65202;52.520;10.528;2023-07-20T05:52:51;5.55;;;3.03;;
76380;SDS011;65202;52.520;10.528;2023-07-20T05:55:20;8.00;;;3.80;;
76380;SDS011;65202;52.520;10.528;2023-07-20T05:57:47;7.00;;;4.18;;
76380;SDS011;65202;52.520;10.528;2023-07-20T06:00:15;5.93;;;3.97;;
76380;SDS011;65202;52.520;10.528;2023-07-20T06:02:45;10.95;;;4.70;;
76380;SDS011;65202;52.520;10.528;2023-07-20T06:05:14;6.97;;;4.68;;
76380;SDS011;65202;52.520;10.528;2023-07-20T06:07:42;9.20;;;4.40;;
76380;SDS011;65202;52.520;10.528;2023-07-20T06:10:09;9.07;;;4.40;;
76380;SDS011;65202;52.520;10.528;2023-07-20T06:12:36;4.68;;;4.18;;
76380;SDS011;65202;52.520;10.528;2023-07-20T06:15:04;3.00;;;2.70;;
76380;SDS011;65202;52.520;10.528;2023-07-20T06:17:32;4.38;;;1.95;;
76380;SDS011;65202;52.520;10.528;2023-07-20T06:20:00;1.75;;;1.15;;
76380;SDS011;65202;52.520;10.528;2023-07-20T06:22:27;4.63;;;1.20;;
76380;SDS011;65202;52.520;10.528;2023-07-20T06:24:54;1.40;;;1.02;;
76380;SDS011;65202;52.520;10.528;2023-07-20T06:27:21;2.08;;;0.95;;
76380;SDS011;65202;52.520;10.528;2023-07-20T06:29:48;3.58;;;1.40;;
76380;SDS011;65202;52.520;10.528;2023-07-20T06:32:16;2.72;;;1.35;;
76380;SDS011;65202;52.520;10.528;2023-07-20T06:34:43;4.53;;;1.67;;
76380;SDS011;65202;52.520;10.528;2023-07-20T06:37:10;1.02;;;0.88;;
76380;SDS011;65202;52.520;10.528;2023-07-20T06:39:37;1.38;;;0.85;;
76380;SDS011;65202;52.520;10.528;2023-07-20T06:42:08;1.10;;;0.80;;
76380;SDS011;65202;52.520;10.528;2023-07-20T06:44:35;0.80;;;0.73;;
76380;SDS011;65202;52.520;10.528;2023-07-20T06:47:02;1.10;;;0.77;;
76380;SDS011;65202;52.520;10.528;2023-07-20T06:49:29;1.95;;;1.00;;
76380;SDS011;65202;52.520;10.528;2023-07-20T06:51:57;1.67;;;0.88;;
76380;SDS011;65202;52.520;10.528;2023-07-20T06:54:24;1.80;;;0.80;;
76380;SDS011;65202;52.520;10.528;2023-07-20T06:56:51;1.65;;;0.75;;
76380;SDS011;65202;52.520;10.528;2023-07-20T06:59:23;1.30;;;1.00;;
76380;SDS011;65202;52.520;10.528;2023-07-20T07:01:51;3.88;;;0.88;;
76380;SDS011;65202;52.520;10.528;2023-07-20T07:04:18;0.88;;;0.70;;
76380;SDS011;65202;52.520;10.528;2023-07-20T07:06:45;0.80;;;0.80;;
76380;SDS011;65202;52.520;10.528;2023-07-20T07:09:13;1.27;;;0.80;;
76380;SDS011;65202;52.520;10.528;2023-07-20T07:11:40;6.47;;;1.52;;
76380;SDS011;65202;52.520;10.528;2023-07-20T07:14:08;1.85;;;0.90;;
76380;SDS011;65202;52.520;10.528;2023-07-20T07:16:35;1.02;;;0.68;;
76380;SDS011;65202;52.520;10.528;2023-07-20T07:19:05;2.15;;;1.25;;
76380;SDS011;65202;52.520;10.528;2023-07-20T07:21:34;2.20;;;1.40;;
76380;SDS011;65202;52.520;10.528;2023-07-20T07:24:01;4.72;;;1.30;;
76380;SDS011;65202;52.520;10.528;2023-07-20T07:26:28;1.20;;;1.00;;
76380;SDS011;65202;52.520;10.528;2023-07-20T07:28:56;1.15;;;0.98;;
76380;SDS011;65202;52.520;10.528;2023-07-20T07:31:24;1.75;;;1.17;;
76380;SDS011;65202;52.520;10.528;2023-07-20T07:33:52;0.90;;;0.90;;
76380;SDS011;65202;52.520;10.528;2023-07-20T07:36:19;1.98;;;0.90;;
76380;SDS011;65202;52.520;10.528;2023-07-20T07:38:47;2.42;;;1.02;;
76380;SDS011;65202;52.520;10.528;2023-07-20T07:41:34;2.35;;;1.10;;
76380;SDS011;65202;52.520;10.528;2023-07-20T07:44:02;1.67;;;1.10;;
76380;SDS011;65202;52.520;10.528;2023-07-20T07:46:29;2.22;;;0.90;;
76380;SDS011;65202;52.520;10.528;2023-07-20T07:48:56;1.75;;;0.88;;
76380;SDS011;65202;52.520;10.528;2023-07-20T07:51:24;3.33;;;0.90;;
76380;SDS011;65202;52.520;10.528;2023-07-20T07:53:51;1.10;;;0.90;;
76380;SDS011;65202;52.520;10.528;2023-07-20T07:56:18;1.13;;;0.90;;
76380;SDS011;65202;52.520;10.528;2023-07-20T07:58:50;2.40;;;1.07;;
76380;SDS011;65202;52.520;10.528;2023-07-20T08:01:21;1.50;;;0.93;;
76380;SDS011;65202;52.520;10.528;2023-07-20T08:03:49;1.38;;;0.90;;
76380;SDS011;65202;52.520;10.528;2023-07-20T08:06:16;2.35;;;0.80;;
76380;SDS011;65202;52.520;10.528;2023-07-20T08:08:44;1.73;;;1.00;;
76380;SDS011;65202;52.520;10.528;2023-07-20T08:11:11;2.33;;;1.08;;
76380;SDS011;65202;52.520;10.528;2023-07-20T08:13:41;1.50;;;1.10;;
76380;SDS011;65202;52.520;10.528;2023-07-20T08:16:08;2.28;;;0.90;;
76380;SDS011;65202;52.520;10.528;2023-07-20T08:18:36;1.38;;;0.90;;
76380;SDS011;65202;52.520;10.528;2023-07-20T08:21:03;1.95;;;1.00;;
76380;SDS011;65202;52.520;10.528;2023-07-20T08:23:30;1.42;;;1.17;;
76380;SDS011;65202;52.520;10.528;2023-07-20T08:25:58;1.80;;;1.10;;
76380;SDS011;65202;52.520;10.528;2023-07-20T08:28:25;2.83;;;1.50;;
76380;SDS011;65202;52.520;10.528;2023-07-20T08:30:53;1.90;;;1.20;;
76380;SDS011;65202;52.520;10.528;2023-07-20T08:33:21;1.70;;;1.00;;
76380;SDS011;65202;52.520;10.528;2023-07-20T08:35:48;2.40;;;0.80;;
76380;SDS011;65202;52.520;10.528;2023-07-20T08:38:15;2.10;;;1.20;;
76380;SDS011;65202;52.520;10.528;2023-07-20T08:40:43;2.63;;;1.00;;
76380;SDS011;65202;52.520;10.528;2023-07-20T08:43:14;4.53;;;0.90;;
76380;SDS011;65202;52.520;10.528;2023-07-20T08:48:15;1.90;;;0.93;;
76380;SDS011;65202;52.520;10.528;2023-07-20T08:50:43;3.20;;;0.85;;
76380;SDS011;65202;52.520;10.528;2023-07-20T08:53:12;1.17;;;0.85;;
76380;SDS011;65202;52.520;10.528;2023-07-20T08:55:41;2.70;;;0.93;;
76380;SDS011;65202;52.520;10.528;2023-07-20T08:58:12;2.42;;;1.20;;
76380;SDS011;65202;52.520;10.528;2023-07-20T09:00:41;2.10;;;1.20;;
76380;SDS011;65202;52.520;10.528;2023-07-20T09:03:13;1.35;;;0.88;;
76380;SDS011;65202;52.520;10.528;2023-07-20T09:05:41;1.58;;;0.82;;
76380;SDS011;65202;52.520;10.528;2023-07-20T09:08:09;1.45;;;0.90;;
76380;SDS011;65202;52.520;10.528;2023-07-20T09:10:36;2.17;;;0.90;;
76380;SDS011;65202;52.520;10.528;2023-07-20T09:13:03;1.23;;;1.00;;
76380;SDS011;65202;52.520;10.528;2023-07-20T09:15:33;3.35;;;0.82;;
76380;SDS011;65202;52.520;10.528;2023-07-20T09:18:00;1.15;;;0.63;;
76380;SDS011;65202;52.520;10.528;2023-07-20T09:20:31;1.88;;;0.70;;
76380;SDS011;65202;52.520;10.528;2023-07-20T09:23:04;0.70;;;0.70;;
76380;SDS011;65202;52.520;10.528;2023-07-20T09:25:33;1.90;;;0.93;;
76380;SDS011;65202;52.520;10.528;2023-07-20T09:28:02;5.68;;;1.27;;
76380;SDS011;65202;52.520;10.528;2023-07-20T09:30:32;3.13;;;0.70;;
76380;SDS011;65202;52.520;10.528;2023-07-20T09:33:00;4.68;;;0.90;;
76380;SDS011;65202;52.520;10.528;2023-07-20T09:35:27;0.70;;;0.70;;
76380;SDS011;65202;52.520;10.528;2023-07-20T09:38:08;1.30;;;0.60;;
76380;SDS011;65202;52.520;10.528;2023-07-20T09:40:38;2.05;;;0.85;;
76380;SDS011;65202;52.520;10.528;2023-07-20T09:43:10;2.30;;;0.90;;
76380;SDS011;65202;52.520;10.528;2023-07-20T09:45:41;2.35;;;0.80;;
76380;SDS011;65202;52.520;10.528;2023-07-20T09:48:12;1.05;;;0.70;;
76380;SDS011;65202;52.520;10.528;2023-07-20T09:50:48;2.65;;;0.98;;
76380;SDS011;65202;52.520;10.528;2023-07-20T09:53:18;2.47;;;1.00;;
76380;SDS011;65202;52.520;10.528;2023-07-20T09:55:47;0.73;;;0.65;;
76380;SDS011;65202;52.520;10.528;2023-07-20T09:58:15;1.00;;;0.70;;
76380;SDS011;65202;52.520;10.528;2023-07-20T10:00:44;1.40;;;0.80;;
76380;SDS011;65202;52.520;10.528;2023-07-20T10:03:21;1.52;;;0.70;;
76380;SDS011;65202;52.520;10.528;2023-07-20T10:06:02;2.00;;;1.40;;
76380;SDS011;65202;52.520;10.528;2023-07-20T10:08:34;1.60;;;1.15;;
76380;SDS011;65202;52.520;10.528;2023-07-20T10:11:10;1.58;;;0.90;;
76380;SDS011;65202;52.520;10.528;2023-07-20T10:13:43;1.73;;;0.80;;
76380;SDS011;65202;52.520;10.528;2023-07-20T10:16:18;1.50;;;1.00;;
76380;SDS011;65202;52.520;10.528;2023-07-20T10:21:42;1.15;;;0.80;;
76380;SDS011;65202;52.520;10.528;2023-07-20T10:24:25;2.10;;;0.90;;
76380;SDS011;65202;52.520;10.528;2023-07-20T10:26:55;2.70;;;1.20;;
76380;SDS011;65202;52.520;10.528;2023-07-20T10:29:22;4.30;;;2.30;;
76380;SDS011;65202;52.520;10.528;2023-07-20T10:31:52;2.90;;;0.93;;
76380;SDS011;65202;52.520;10.528;2023-07-20T10:34:21;1.98;;;0.88;;
76380;SDS011;65202;52.520;10.528;2023-07-20T10:36:49;3.22;;;1.00;;
76380;SDS011;65202;52.520;10.528;2023-07-20T10:39:22;3.53;;;1.30;;
76380;SDS011;65202;52.520;10.528;2023-07-20T10:42:01;1.05;;;0.90;;
76380;SDS011;65202;52.520;10.528;2023-07-20T10:44:37;2.70;;;0.85;;
76380;SDS011;65202;52.520;10.528;2023-07-20T10:47:08;2.78;;;0.90;;
76380;SDS011;65202;52.520;10.528;2023-07-20T10:49:57;1.60;;;0.80;;
76380;SDS011;65202;52.520;10.528;2023-07-20T10:52:41;0.80;;;0.70;;
76380;SDS011;65202;52.520;10.528;2023-07-20T10:55:15;1.60;;;0.80;;
76380;SDS011;65202;52.520;10.528;2023-07-20T10:57:43;3.30;;;1.23;;
76380;SDS011;65202;52.520;10.528;2023-07-20T11:00:36;1.90;;;0.80;;
76380;SDS011;65202;52.520;10.528;2023-07-20T11:03:31;2.10;;;0.90;;
76380;SDS011;65202;52.520;10.528;2023-07-20T11:08:56;0.90;;;0.90;;
76380;SDS011;65202;52.520;10.528;2023-07-20T11:11:27;2.03;;;0.95;;
76380;SDS011;65202;52.520;10.528;2023-07-20T11:13:58;1.88;;;0.85;;
76380;SDS011;65202;52.520;10.528;2023-07-20T11:16:34;2.00;;;0.90;;
76380;SDS011;65202;52.520;10.528;2023-07-20T11:19:04;4.40;;;1.02;;
76380;SDS011;65202;52.520;10.528;2023-07-20T11:22:01;1.02;;;0.80;;
76380;SDS011;65202;52.520;10.528;2023-07-20T11:24:37;1.10;;;0.80;;
76380;SDS011;65202;52.520;10.528;2023-07-20T11:27:09;4.60;;;0.80;;
76380;SDS011;65202;52.520;10.528;2023-07-20T11:29:37;3.03;;;0.80;;
76380;SDS011;65202;52.520;10.528;2023-07-20T11:32:04;3.03;;;0.70;;
76380;SDS011;65202;52.520;10.528;2023-07-20T11:34:33;5.57;;;0.90;;
76380;SDS011;65202;52.520;10.528;2023-07-20T11:37:02;2.80;;;0.90;;
76380;SDS011;65202;52.520;10.528;2023-07-20T11:39:33;1.65;;;1.00;;
76380;SDS011;65202;52.520;10.528;2023-07-20T11:42:01;5.20;;;0.90;;
76380;SDS011;65202;52.520;10.528;2023-07-20T11:44:28;2.42;;;1.10;;
76380;SDS011;65202;52.520;10.528;2023-07-20T11:49:35;4.00;;;0.98;;
76380;SDS011;65202;52.520;10.528;2023-07-20T11:52:08;1.92;;;0.93;;
76380;SDS011;65202;52.520;10.528;2023-07-20T11:54:39;4.88;;;1.08;;
76380;SDS011;65202;52.520;10.528;2023-07-20T11:57:17;2.92;;;0.90;;
76380;SDS011;65202;52.520;10.528;2023-07-20T11:59:55;2.15;;;0.93;;
76380;SDS011;65202;52.520;10.528;2023-07-20T12:02:32;2.10;;;1.10;;
76380;SDS011;65202;52.520;10.528;2023-07-20T12:04:59;3.28;;;1.30;;
76380;SDS011;65202;52.520;10.528;2023-07-20T12:07:27;3.97;;;1.17;;
76380;SDS011;65202;52.520;10.528;2023-07-20T12:12:40;1.45;;;1.00;;
76380;SDS011;65202;52.520;10.528;2023-07-20T12:17:51;2.15;;;1.10;;
76380;SDS011;65202;52.520;10.528;2023-07-20T12:20:25;3.05;;;1.20;;
76380;SDS011;65202;52.520;10.528;2023-07-20T12:23:08;2.70;;;1.13;;
76380;SDS011;65202;52.520;10.528;2023-07-20T12:28:15;11.27;;;1.17;;
76380;SDS011;65202;52.520;10.528;2023-07-20T12:30:45;2.40;;;1.20;;
76380;SDS011;65202;52.520;10.528;2023-07-20T12:33:14;1.65;;;1.15;;
76380;SDS011;65202;52.520;10.528;2023-07-20T12:35:43;2.90;;;1.02;;
76380;SDS011;65202;52.520;10.528;2023-07-20T12:38:11;5.57;;;1.30;;
76380;SDS011;65202;52.520;10.528;2023-07-20T12:40:38;1.73;;;1.08;;
76380;SDS011;65202;52.520;10.528;2023-07-20T12:43:05;3.10;;;1.23;;
76380;SDS011;65202;52.520;10.528;2023-07-20T12:45:34;1.45;;;1.02;;
76380;SDS011;65202;52.520;10.528;2023-07-20T12:48:01;2.25;;;1.08;;
76380;SDS011;65202;52.520;10.528;2023-07-20T12:50:28;3.08;;;1.10;;
76380;SDS011;65202;52.520;10.528;2023-07-20T12:52:56;4.30;;;1.05;;
76380;SDS011;65202;52.520;10.528;2023-07-20T12:55:24;3.45;;;1.20;;
76380;SDS011;65202;52.520;10.528;2023-07-20T12:57:51;3.67;;;2.30;;
76380;SDS011;65202;52.520;10.528;2023-07-20T13:00:18;3.25;;;1.02;;
76380;SDS011;65202;52.520;10.528;2023-07-20T13:02:46;2.35;;;1.25;;
76380;SDS011;65202;52.520;10.528;2023-07-20T13:05:14;1.92;;;1.35;;
76380;SDS011;65202;52.520;10.528;2023-07-20T13:07:42;2.38;;;0.98;;
76380;SDS011;65202;52.520;10.528;2023-07-20T13:10:12;3.38;;;0.93;;
76380;SDS011;65202;52.520;10.528;2023-07-20T13:12:40;2.50;;;1.10;;
76380;SDS011;65202;52.520;10.528;2023-07-20T13:15:09;4.20;;;1.42;;
76380;SDS011;65202;52.520;10.528;2023-07-20T13:17:38;3.35;;;1.30;;
76380;SDS011;65202;52.520;10.528;2023-07-20T13:20:07;1.95;;;1.10;;
76380;SDS011;65202;52.520;10.528;2023-07-20T13:22:38;2.95;;;1.55;;
76380;SDS011;65202;52.520;10.528;2023-07-20T13:25:06;4.05;;;2.17;;
76380;SDS011;65202;52.520;10.528;2023-07-20T13:27:35;4.45;;;1.98;;
76380;SDS011;65202;52.520;10.528;2023-07-20T13:30:04;2.97;;;2.10;;
76380;SDS011;65202;52.520;10.528;2023-07-20T13:32:36;3.00;;;1.20;;
76380;SDS011;65202;52.520;10.528;2023-07-20T13:35:07;3.28;;;1.25;;
76380;SDS011;65202;52.520;10.528;2023-07-20T13:37:34;3.45;;;1.35;;
76380;SDS011;65202;52.520;10.528;2023-07-20T13:40:02;3.53;;;1.42;;
76380;SDS011;65202;52.520;10.528;2023-07-20T13:42:33;4.03;;;1.10;;
76380;SDS011;65202;52.520;10.528;2023-07-20T13:45:01;3.05;;;1.30;;
76380;SDS011;65202;52.520;10.528;2023-07-20T13:47:31;2.42;;;1.25;;
76380;SDS011;65202;52.520;10.528;2023-07-20T13:50:00;4.68;;;1.30;;
76380;SDS011;65202;52.520;10.528;2023-07-20T13:52:30;2.15;;;1.10;;
76380;SDS011;65202;52.520;10.528;2023-07-20T13:55:01;1.90;;;1.27;;
76380;SDS011;65202;52.520;10.528;2023-07-20T13:57:31;3.78;;;1.20;;
76380;SDS011;65202;52.520;10.528;2023-07-20T14:00:02;3.72;;;1.13;;
76380;SDS011;65202;52.520;10.528;2023-07-20T14:02:32;2.35;;;1.20;;
76380;SDS011;65202;52.520;10.528;2023-07-20T14:05:03;3.42;;;1.33;;
76380;SDS011;65202;52.520;10.528;2023-07-20T14:07:33;2.00;;;1.42;;
76380;SDS011;65202;52.520;10.528;2023-07-20T14:10:01;2.30;;;1.70;;
76380;SDS011;65202;52.520;10.528;2023-07-20T14:12:31;3.17;;;1.52;;
76380;SDS011;65202;52.520;10.528;2023-07-20T14:14:58;2.55;;;1.30;;
76380;SDS011;65202;52.520;10.528;2023-07-20T14:17:25;2.78;;;1.30;;
76380;SDS011;65202;52.520;10.528;2023-07-20T14:19:53;3.33;;;1.70;;
76380;SDS011;65202;52.520;10.528;2023-07-20T14:22:20;4.47;;;1.70;;
76380;SDS011;65202;52.520;10.528;2023-07-20T14:24:47;2.58;;;1.60;;
76380;SDS011;65202;52.520;10.528;2023-07-20T14:27:15;4.30;;;1.73;;
76380;SDS011;65202;52.520;10.528;2023-07-20T14:29:42;5.20;;;1.83;;
76380;SDS011;65202;52.520;10.528;2023-07-20T14:32:10;9.50;;;1.92;;
76380;SDS011;65202;52.520;10.528;2023-07-20T14:34:37;3.78;;;1.58;;
76380;SDS011;65202;52.520;10.528;2023-07-20T14:37:06;6.18;;;1.90;;
76380;SDS011;65202;52.520;10.528;2023-07-20T14:39:33;6.32;;;1.73;;
76380;SDS011;65202;52.520;10.528;2023-07-20T14:42:01;4.05;;;1.65;;
76380;SDS011;65202;52.520;10.528;2023-07-20T14:44:30;2.80;;;1.48;;
76380;SDS011;65202;52.520;10.528;2023-07-20T14:47:00;3.70;;;1.52;;
76380;SDS011;65202;52.520;10.528;2023-07-20T14:49:39;3.25;;;1.63;;
76380;SDS011;65202;52.520;10.528;2023-07-20T14:52:07;5.38;;;1.88;;
76380;SDS011;65202;52.520;10.528;2023-07-20T14:54:37;6.82;;;1.73;;
76380;SDS011;65202;52.520;10.528;2023-07-20T14:57:05;2.60;;;1.60;;
76380;SDS011;65202;52.520;10.528;2023-07-20T14:59:40;4.88;;;1.40;;
76380;SDS011;65202;52.520;10.528;2023-07-20T15:02:11;5.57;;;1.70;;
76380;SDS011;65202;52.520;10.528;2023-07-20T15:04:46;4.03;;;1.70;;
76380;SDS011;65202;52.520;10.528;2023-07-20T15:07:16;2.83;;;1.63;;
76380;SDS011;65202;52.520;10.528;2023-07-20T15:09:45;6.13;;;1.60;;